createdAt,value
2019-05-05T00:01:22.319Z,5.05
2019-05-05T00:04:01.685Z,6.30
2019-05-05T00:06:29.630Z,6.28
2019-05-05T00:08:57.608Z,6.35
2019-05-05T00:11:38.859Z,6.10
2019-05-05T00:14:16.395Z,6.08
2019-05-05T00:16:49.651Z,6.28
2019-05-05T00:19:29.761Z,7.33
2019-05-05T00:21:47.717Z,7.20
2019-05-05T00:24:15.664Z,6.20
2019-05-05T00:26:45.913Z,6.95
2019-05-05T00:29:14.845Z,7.10
2019-05-05T00:31:45.266Z,8.40
2019-05-05T00:34:12.582Z,7.53
2019-05-05T00:36:40.494Z,7.33
2019-05-05T00:39:08.487Z,7.85
2019-05-05T00:41:36.429Z,7.90
2019-05-05T00:44:04.861Z,7.85
2019-05-05T00:47:07.058Z,7.83
2019-05-05T00:49:45.518Z,8.53
2019-05-05T00:52:05.779Z,8.23
2019-05-05T00:54:34.689Z,8.13
2019-05-05T00:57:04.464Z,8.30
2019-05-05T00:59:34.603Z,9.08
2019-05-05T01:02:21.743Z,8.75
2019-05-05T01:04:59.283Z,8.70
2019-05-05T01:07:27.232Z,8.95
2019-05-05T01:09:55.308Z,9.58
2019-05-05T01:12:24.355Z,10.10
2019-05-05T01:14:52.631Z,10.98
2019-05-05T01:17:20.583Z,10.00
2019-05-05T01:20:00.299Z,12.00
2019-05-05T01:22:18.102Z,12.20
2019-05-05T01:24:46.092Z,12.18
2019-05-05T01:27:14.770Z,11.73
2019-05-05T01:29:45.062Z,11.93
2019-05-05T01:32:16.892Z,10.68
2019-05-05T01:34:45.848Z,11.48
2019-05-05T01:37:20.223Z,11.38
2019-05-05T01:39:54.735Z,12.10
2019-05-05T01:45:25.922Z,11.80
2019-05-05T01:47:54.555Z,13.45
2019-05-05T01:50:24.654Z,13.45
2019-05-05T01:52:52.375Z,13.38
2019-05-05T01:55:20.286Z,12.85
2019-05-05T01:57:48.227Z,12.58
2019-05-05T02:00:16.175Z,14.33
2019-05-05T02:02:44.828Z,13.88
2019-05-05T02:05:14.754Z,14.87
2019-05-05T02:07:44.880Z,14.28
2019-05-05T02:10:15.041Z,12.88
2019-05-05T02:12:44.151Z,13.32
2019-05-05T02:15:12.031Z,13.43
2019-05-05T02:17:40.012Z,14.13
2019-05-05T02:20:07.978Z,13.83
2019-05-05T02:22:35.980Z,14.78
2019-05-05T02:25:04.314Z,15.65
2019-05-05T02:27:34.230Z,14.70
2019-05-05T02:30:20.110Z,14.30
2019-05-05T02:32:51.017Z,13.88
2019-05-05T02:35:18.886Z,13.78
2019-05-05T02:37:46.961Z,15.35
2019-05-05T02:40:15.945Z,15.03
2019-05-05T02:42:45.579Z,14.75
2019-05-05T02:45:17.641Z,15.15
2019-05-05T02:48:08.623Z,13.58
2019-05-05T02:51:00.760Z,13.55
2019-05-05T02:53:24.730Z,13.72
2019-05-05T02:55:53.419Z,14.25
2019-05-05T02:58:21.523Z,14.55
2019-05-05T03:01:14.598Z,14.20
2019-05-05T03:03:43.823Z,14.53
2019-05-05T03:06:11.951Z,14.00
2019-05-05T03:08:39.871Z,13.05
2019-05-05T03:11:07.772Z,15.53
2019-05-05T03:13:35.665Z,14.98
2019-05-05T03:16:03.843Z,15.25
2019-05-05T03:18:33.730Z,14.80
2019-05-05T03:21:05.209Z,14.98
2019-05-05T03:23:33.365Z,15.95
2019-05-05T03:26:00.951Z,15.98
2019-05-05T03:28:40.308Z,15.40
2019-05-05T03:33:45.851Z,15.53
2019-05-05T03:36:18.228Z,15.35
2019-05-05T03:38:46.115Z,17.17
2019-05-05T03:41:34.447Z,15.10
2019-05-05T03:44:20.379Z,15.25
2019-05-05T03:46:48.353Z,14.75
2019-05-05T03:49:16.363Z,16.57
2019-05-05T03:51:44.428Z,16.27
2019-05-05T03:54:14.455Z,15.80
2019-05-05T03:56:43.982Z,17.07
2019-05-05T03:59:13.863Z,15.90
2019-05-05T04:02:06.416Z,16.05
2019-05-05T04:04:39.580Z,15.70
2019-05-05T04:07:07.475Z,15.48
2019-05-05T04:09:35.339Z,16.02
2019-05-05T04:12:04.436Z,17.37
2019-05-05T04:14:34.586Z,16.23
2019-05-05T04:17:20.748Z,15.45
2019-05-05T04:19:51.267Z,15.10
2019-05-05T04:22:19.128Z,16.65
2019-05-05T04:24:47.117Z,15.35
2019-05-05T04:27:15.089Z,15.75
2019-05-05T04:29:43.945Z,15.90
2019-05-05T04:32:14.014Z,15.25
2019-05-05T04:34:43.830Z,14.85
2019-05-05T04:37:11.537Z,15.32
2019-05-05T04:39:39.518Z,16.65
2019-05-05T04:42:07.525Z,16.42
2019-05-05T04:44:35.589Z,16.17
2019-05-05T04:47:09.692Z,14.63
2019-05-05T04:49:46.479Z,14.68
2019-05-05T04:52:15.390Z,16.80
2019-05-05T04:54:55.489Z,16.02
2019-05-05T04:57:24.022Z,17.37
2019-05-05T04:59:54.006Z,16.32
2019-05-05T05:02:43.478Z,16.65
2019-05-05T05:05:18.186Z,16.05
2019-05-05T05:07:45.494Z,15.65
2019-05-05T05:10:13.963Z,16.25
2019-05-05T05:12:43.577Z,16.45
2019-05-05T05:15:11.756Z,16.15
2019-05-05T05:17:48.729Z,16.12
2019-05-05T05:20:16.728Z,16.05
2019-05-05T05:22:44.668Z,15.30
2019-05-05T05:25:13.617Z,16.77
2019-05-05T05:27:41.724Z,16.30
2019-05-05T05:30:09.692Z,16.07
2019-05-05T05:32:39.817Z,15.18
2019-05-05T05:35:07.304Z,15.53
2019-05-05T05:37:35.199Z,14.45
2019-05-05T05:40:14.701Z,15.90
2019-05-05T05:42:43.965Z,14.73
2019-05-05T05:45:28.457Z,16.20
2019-05-05T05:48:15.416Z,16.52
2019-05-05T05:50:48.018Z,16.80
2019-05-05T05:53:15.919Z,16.07
2019-05-05T05:55:44.755Z,15.75
2019-05-05T05:58:14.115Z,14.20
2019-05-05T06:00:44.080Z,14.73
2019-05-05T06:03:13.916Z,13.90
2019-05-05T06:05:43.426Z,14.80
2019-05-05T06:08:11.295Z,14.25
2019-05-05T06:10:39.199Z,13.75
2019-05-05T06:13:07.121Z,13.83
2019-05-05T06:15:35.081Z,13.53
2019-05-05T06:18:04.648Z,13.13
2019-05-05T06:20:34.419Z,13.05
2019-05-05T06:23:04.107Z,13.32
2019-05-05T06:25:34.133Z,15.80
2019-05-05T06:28:14.563Z,14.70
2019-05-05T06:30:40.914Z,13.80
2019-05-05T06:33:08.896Z,16.23
2019-05-05T06:35:36.849Z,19.65
2019-05-05T06:38:04.871Z,20.35
2019-05-05T06:40:44.791Z,16.93
2019-05-05T06:43:30.434Z,17.82
2019-05-05T06:48:26.526Z,15.72
2019-05-05T06:50:54.538Z,14.20
2019-05-05T06:53:23.897Z,18.07
2019-05-05T06:55:54.139Z,16.20
2019-05-05T06:58:21.710Z,12.75
2019-05-05T07:00:49.621Z,11.25
2019-05-05T07:03:17.598Z,11.30
2019-05-05T07:05:45.490Z,10.20
2019-05-05T07:08:13.764Z,11.10
2019-05-05T07:10:44.268Z,10.72
2019-05-05T07:13:13.845Z,12.33
2019-05-05T07:15:43.590Z,14.55
2019-05-05T07:18:11.146Z,11.73
2019-05-05T07:20:39.108Z,11.35
2019-05-05T07:23:07.092Z,9.70
2019-05-05T07:25:42.710Z,9.65
2019-05-05T07:28:04.859Z,8.73
2019-05-05T07:30:33.602Z,7.70
2019-05-05T07:33:01.678Z,6.80
2019-05-05T07:35:56.703Z,6.80
2019-05-05T07:38:18.330Z,6.17
2019-05-05T07:40:46.360Z,6.55
2019-05-05T07:43:14.710Z,5.70
2019-05-05T07:45:44.605Z,5.37
2019-05-05T07:48:13.818Z,5.30
2019-05-05T07:50:45.041Z,4.58
2019-05-05T07:53:15.050Z,4.10
2019-05-05T07:55:43.576Z,3.95
2019-05-05T07:58:11.028Z,3.72
2019-05-05T08:00:38.975Z,3.60
2019-05-05T08:03:06.919Z,3.20
2019-05-05T08:05:36.416Z,3.25
2019-05-05T08:08:04.665Z,3.40
2019-05-05T08:10:34.385Z,3.62
2019-05-05T08:13:04.465Z,3.95
2019-05-05T08:15:34.143Z,3.90
2019-05-05T08:18:19.611Z,3.35
2019-05-05T08:23:53.884Z,3.87
2019-05-05T08:26:29.433Z,3.58
2019-05-05T08:29:04.646Z,3.17
2019-05-05T08:34:34.013Z,5.50
2019-05-05T08:37:03.801Z,6.85
2019-05-05T08:39:34.331Z,5.15
2019-05-05T08:42:04.108Z,4.20
2019-05-05T08:44:31.320Z,4.47
2019-05-05T08:46:59.370Z,3.45
2019-05-05T08:49:27.482Z,2.90
2019-05-05T08:51:55.606Z,3.77
2019-05-05T08:54:23.684Z,3.00
2019-05-05T08:56:51.861Z,3.30
2019-05-05T08:59:19.850Z,3.58
2019-05-05T09:01:47.851Z,3.60
2019-05-05T09:04:15.862Z,3.42
2019-05-05T09:06:43.955Z,3.95
2019-05-05T09:09:11.866Z,4.35
2019-05-05T09:11:39.908Z,7.70
2019-05-05T09:14:08.002Z,5.03
2019-05-05T09:16:55.174Z,5.28
2019-05-05T09:19:24.022Z,3.80
2019-05-05T09:21:54.173Z,3.50
2019-05-05T09:24:36.729Z,4.87
2019-05-05T09:27:24.840Z,4.35
2019-05-05T09:29:54.337Z,4.72
2019-05-05T09:32:24.371Z,3.92
2019-05-05T09:34:54.074Z,3.85
2019-05-05T09:37:24.565Z,2.85
2019-05-05T09:39:54.067Z,3.40
2019-05-05T09:42:23.636Z,3.50
2019-05-05T09:44:54.189Z,3.10
2019-05-05T09:47:24.027Z,4.08
2019-05-05T09:49:52.312Z,3.58
2019-05-05T09:52:20.302Z,3.60
2019-05-05T09:54:48.271Z,3.58
2019-05-05T09:57:16.265Z,3.72
2019-05-05T09:59:44.433Z,3.80
2019-05-05T10:02:12.574Z,4.28
2019-05-05T10:04:40.638Z,4.97
2019-05-05T10:07:13.725Z,5.92
2019-05-05T10:09:40.689Z,5.58
2019-05-05T10:12:08.732Z,4.45
2019-05-05T10:14:36.899Z,3.77
2019-05-05T10:17:05.150Z,3.52
2019-05-05T10:19:33.545Z,3.27
2019-05-05T10:22:01.536Z,3.15
2019-05-05T10:24:57.732Z,2.80
2019-05-05T10:27:25.880Z,3.08
2019-05-05T10:29:54.765Z,2.50
2019-05-05T10:32:24.494Z,2.10
2019-05-05T10:35:04.551Z,2.08
2019-05-05T10:37:34.588Z,1.98
2019-05-05T10:40:03.629Z,2.20
2019-05-05T10:42:50.137Z,2.47
2019-05-05T10:45:18.338Z,2.77
2019-05-05T10:47:46.297Z,3.67
2019-05-05T10:50:14.302Z,4.10
2019-05-05T10:52:44.173Z,4.28
2019-05-05T10:55:12.051Z,4.80
2019-05-05T10:57:43.597Z,4.78
2019-05-05T11:00:13.202Z,5.00
2019-05-05T11:02:41.665Z,5.20
2019-05-05T11:05:09.765Z,5.20
2019-05-05T11:07:37.981Z,5.62
2019-05-05T11:10:05.968Z,5.67
2019-05-05T11:12:34.206Z,6.20
2019-05-05T11:15:04.088Z,5.58
2019-05-05T11:17:32.051Z,5.05
2019-05-05T11:20:00.217Z,5.35
2019-05-05T11:22:28.378Z,4.90
2019-05-05T11:25:00.811Z,4.78
2019-05-05T11:27:26.256Z,4.80
2019-05-05T11:30:14.143Z,5.10
2019-05-05T11:33:16.029Z,5.25
2019-05-05T11:36:06.824Z,4.92
2019-05-05T11:38:34.913Z,5.08
2019-05-05T11:41:04.806Z,4.90
2019-05-05T11:43:33.771Z,4.90
2019-05-05T11:46:01.923Z,5.60
2019-05-05T11:48:30.055Z,5.30
2019-05-05T11:50:58.176Z,5.22
2019-05-05T11:53:26.274Z,5.20
2019-05-05T11:55:55.102Z,4.33
2019-05-05T11:58:24.832Z,5.00
2019-05-05T12:00:54.506Z,4.70
2019-05-05T12:03:23.008Z,4.55
2019-05-05T12:05:51.116Z,4.75
2019-05-05T12:08:19.170Z,4.37
2019-05-05T12:11:07.177Z,4.83
2019-05-05T12:13:35.244Z,5.10
2019-05-05T12:16:05.649Z,4.60
2019-05-05T12:18:34.250Z,4.50
2019-05-05T12:21:04.855Z,4.53
2019-05-05T12:23:34.064Z,4.30
2019-05-05T12:26:24.412Z,4.17
2019-05-05T12:28:58.251Z,4.20
2019-05-05T12:31:27.944Z,4.35
2019-05-05T12:33:55.951Z,4.72
2019-05-05T12:36:23.937Z,3.90
2019-05-05T12:38:54.424Z,4.28
2019-05-05T12:41:23.884Z,3.90
2019-05-05T12:43:54.570Z,4.08
2019-05-05T12:46:38.253Z,4.08
2019-05-05T12:49:07.125Z,3.85
2019-05-05T12:51:35.123Z,3.83
2019-05-05T12:54:04.520Z,3.85
2019-05-05T12:56:34.006Z,4.50
2019-05-05T12:59:04.446Z,4.50
2019-05-05T13:01:37.657Z,4.40
2019-05-05T13:04:05.752Z,3.95
2019-05-05T13:06:37.204Z,3.72
2019-05-05T13:09:05.535Z,3.90
2019-05-05T13:11:34.342Z,3.70
2019-05-05T13:14:03.711Z,3.70
2019-05-05T13:16:32.065Z,4.20
2019-05-05T13:19:01.001Z,4.08
2019-05-05T13:21:46.873Z,4.00
2019-05-05T13:24:34.401Z,4.33
2019-05-05T13:27:09.906Z,4.78
2019-05-05T13:29:35.702Z,4.37
2019-05-05T13:32:03.765Z,4.50
2019-05-05T13:34:31.780Z,4.62
2019-05-05T13:36:59.761Z,4.55
2019-05-05T13:39:27.685Z,4.58
2019-05-05T13:41:55.676Z,4.22
2019-05-05T13:44:41.183Z,4.80
2019-05-05T13:47:08.906Z,4.50
2019-05-05T13:49:39.718Z,4.62
2019-05-05T13:52:07.683Z,4.67
2019-05-05T13:54:35.744Z,4.92
2019-05-05T13:57:03.982Z,5.00
2019-05-05T13:59:33.988Z,5.22
2019-05-05T14:02:01.811Z,5.22
2019-05-05T14:04:29.903Z,5.08
2019-05-05T14:06:57.922Z,4.58
2019-05-05T14:09:25.966Z,4.70
2019-05-05T14:11:54.182Z,4.65
2019-05-05T14:14:24.129Z,5.33
2019-05-05T14:16:53.778Z,5.15
2019-05-05T14:19:21.668Z,5.00
2019-05-05T14:21:49.807Z,4.75
2019-05-05T14:24:25.238Z,4.92
2019-05-05T14:29:53.198Z,5.37
2019-05-05T14:32:23.870Z,4.85
2019-05-05T14:35:07.799Z,4.72
2019-05-05T14:37:41.987Z,5.05
2019-05-05T14:40:10.071Z,5.25
2019-05-05T14:42:57.106Z,4.90
2019-05-05T14:45:25.411Z,5.95
2019-05-05T14:47:53.656Z,5.08
2019-05-05T14:50:24.013Z,6.00
2019-05-05T14:52:53.358Z,7.72
2019-05-05T14:55:22.460Z,6.78
2019-05-05T14:57:50.666Z,7.42
2019-05-05T15:00:21.776Z,6.00
2019-05-05T15:02:49.849Z,4.95
2019-05-05T15:05:35.593Z,7.22
2019-05-05T15:08:33.359Z,6.55
2019-05-05T15:11:20.013Z,5.00
2019-05-05T15:13:47.990Z,4.85
2019-05-05T15:16:15.943Z,4.80
2019-05-05T15:18:43.981Z,4.62
2019-05-05T15:21:11.937Z,4.50
2019-05-05T15:23:39.893Z,4.70
2019-05-05T15:26:08.155Z,4.25
2019-05-05T15:28:36.318Z,4.10
2019-05-05T15:31:05.407Z,4.08
2019-05-05T15:33:33.656Z,3.83
2019-05-05T15:36:04.853Z,3.77
2019-05-05T15:38:34.736Z,4.00
2019-05-05T15:41:03.974Z,4.30
2019-05-05T15:43:33.505Z,4.03
2019-05-05T15:46:01.648Z,4.20
2019-05-05T15:48:29.683Z,3.90
2019-05-05T15:50:57.727Z,4.12
2019-05-05T15:53:25.775Z,4.62
2019-05-05T15:55:54.041Z,3.95
2019-05-05T15:58:24.012Z,4.67
2019-05-05T16:00:53.829Z,4.78
2019-05-05T16:03:21.893Z,4.70
2019-05-05T16:05:50.982Z,4.58
2019-05-05T16:08:18.997Z,4.12
2019-05-05T16:10:47.051Z,3.75
2019-05-05T16:13:15.035Z,4.12
2019-05-05T16:16:02.004Z,4.15
2019-05-05T16:18:48.668Z,4.15
2019-05-05T16:21:34.681Z,4.30
2019-05-05T16:24:08.419Z,4.80
2019-05-05T16:26:36.464Z,4.55
2019-05-05T16:29:08.815Z,4.30
2019-05-05T16:31:40.823Z,4.50
2019-05-05T16:34:10.878Z,4.45
2019-05-05T16:36:39.053Z,4.78
2019-05-05T16:39:07.247Z,4.50
2019-05-05T16:41:35.461Z,4.33
2019-05-05T16:44:03.443Z,4.78
2019-05-05T16:46:31.639Z,4.30
2019-05-05T16:48:59.762Z,4.53
2019-05-05T16:51:33.375Z,4.55
2019-05-05T16:54:04.678Z,4.47
2019-05-05T16:56:33.660Z,4.80
2019-05-05T16:59:01.893Z,5.08
2019-05-05T17:01:29.815Z,5.35
2019-05-05T17:04:08.408Z,4.67
2019-05-05T17:06:27.751Z,4.75
2019-05-05T17:08:55.910Z,5.28
2019-05-05T17:11:26.176Z,6.75
2019-05-05T17:14:18.876Z,7.35
2019-05-05T17:17:06.021Z,13.62
2019-05-05T17:19:47.888Z,12.73
2019-05-05T17:22:25.366Z,9.00
2019-05-05T17:24:53.602Z,8.10
2019-05-05T17:27:23.542Z,7.20
2019-05-05T17:29:53.743Z,5.60
2019-05-05T17:32:24.905Z,6.03
2019-05-05T17:34:51.832Z,5.55
2019-05-05T17:37:20.042Z,5.25
2019-05-05T17:39:59.653Z,5.30
2019-05-05T17:42:46.674Z,5.10
2019-05-05T17:45:34.392Z,4.62
2019-05-05T17:48:14.069Z,5.35
2019-05-05T17:50:56.084Z,5.50
2019-05-05T17:53:34.411Z,4.95
2019-05-05T17:56:03.970Z,4.83
2019-05-05T17:58:33.914Z,4.62
2019-05-05T18:01:03.671Z,4.75
2019-05-05T18:03:31.191Z,5.00
2019-05-05T18:06:24.434Z,5.08
2019-05-05T18:08:56.196Z,5.40
2019-05-05T18:11:35.042Z,4.95
2019-05-05T18:14:06.588Z,6.10
2019-05-05T18:16:34.558Z,5.05
2019-05-05T18:19:04.348Z,4.80
2019-05-05T18:21:32.904Z,5.33
2019-05-05T18:24:02.025Z,5.10
2019-05-05T18:26:30.004Z,5.00
2019-05-05T18:28:58.029Z,5.20
2019-05-05T18:31:26.042Z,4.97
2019-05-05T18:33:54.443Z,4.90
2019-05-05T18:36:22.672Z,5.00
2019-05-05T18:38:50.722Z,4.45
2019-05-05T18:41:28.608Z,4.78
2019-05-05T18:44:09.159Z,4.62
2019-05-05T18:46:37.254Z,4.40
2019-05-05T18:49:05.266Z,5.08
2019-05-05T18:51:34.754Z,5.25
2019-05-05T18:54:04.216Z,5.37
2019-05-05T18:56:34.588Z,5.28
2019-05-05T18:59:04.627Z,4.87
2019-05-05T19:01:44.830Z,5.58
2019-05-05T19:04:28.072Z,5.05
2019-05-05T19:07:06.941Z,4.97
2019-05-05T19:09:35.967Z,5.12
2019-05-05T19:12:06.739Z,4.90
2019-05-05T19:14:35.049Z,5.00
2019-05-05T19:17:04.594Z,4.45
2019-05-05T19:19:34.495Z,5.15
2019-05-05T19:22:07.103Z,4.65
2019-05-05T19:24:35.467Z,4.75
2019-05-05T19:27:03.768Z,4.78
2019-05-05T19:29:31.940Z,4.95
2019-05-05T19:31:59.973Z,5.15
2019-05-05T19:34:28.069Z,4.80
2019-05-05T19:36:56.217Z,5.45
2019-05-05T19:39:24.395Z,5.05
2019-05-05T19:41:54.365Z,5.10
2019-05-05T19:44:25.852Z,5.45
2019-05-05T19:47:10.947Z,5.55
2019-05-05T19:49:40.545Z,5.80
2019-05-05T19:52:08.410Z,6.15
2019-05-05T19:54:36.513Z,6.10
2019-05-05T19:57:04.570Z,5.30
2019-05-05T19:59:35.648Z,5.58
2019-05-05T20:02:05.759Z,5.92
2019-05-05T20:04:33.844Z,5.37
2019-05-05T20:07:01.845Z,5.33
2019-05-05T20:09:29.909Z,5.50
2019-05-05T20:11:57.912Z,5.47
2019-05-05T20:14:25.947Z,5.90
2019-05-05T20:17:08.586Z,5.33
2019-05-05T20:19:40.830Z,5.62
2019-05-05T20:22:08.733Z,6.17
2019-05-05T20:24:36.854Z,6.20
2019-05-05T20:27:04.801Z,5.58
2019-05-05T20:29:36.758Z,5.72
2019-05-05T20:32:04.339Z,5.72
2019-05-05T20:34:40.406Z,6.40
2019-05-05T20:37:14.141Z,6.30
2019-05-05T20:39:43.944Z,6.35
2019-05-05T20:42:12.019Z,6.42
2019-05-05T20:44:40.025Z,6.78
2019-05-05T20:47:07.900Z,6.75
2019-05-05T20:49:35.828Z,6.78
2019-05-05T20:52:03.971Z,6.20
2019-05-05T20:54:31.939Z,6.42
2019-05-05T20:56:59.804Z,6.00
2019-05-05T20:59:30.889Z,5.70
2019-05-05T21:01:57.380Z,5.33
2019-05-05T21:04:25.255Z,5.70
2019-05-05T21:06:53.535Z,6.72
2019-05-05T21:09:21.529Z,5.87
2019-05-05T21:11:49.454Z,6.40
2019-05-05T21:14:30.893Z,6.00
2019-05-05T21:16:46.927Z,5.75
2019-05-05T21:19:14.892Z,5.80
2019-05-05T21:21:45.433Z,5.35
2019-05-05T21:24:14.103Z,5.08
2019-05-05T21:26:52.103Z,5.90
2019-05-05T21:29:20.085Z,5.95
2019-05-05T21:31:48.218Z,5.30
2019-05-05T21:34:16.165Z,5.72
2019-05-05T21:36:44.775Z,6.17
2019-05-05T21:39:14.891Z,5.17
2019-05-05T21:41:43.797Z,5.33
2019-05-05T21:44:14.446Z,5.80
2019-05-05T21:46:43.685Z,5.35
2019-05-05T21:49:13.454Z,6.40
2019-05-05T21:52:15.194Z,5.67
2019-05-05T21:54:58.936Z,6.10
2019-05-05T21:57:47.390Z,5.45
2019-05-05T22:00:34.745Z,6.12
2019-05-05T22:03:04.535Z,6.60
2019-05-05T22:05:33.538Z,6.40
2019-05-05T22:08:01.655Z,6.53
2019-05-05T22:10:29.561Z,6.85
2019-05-05T22:12:57.605Z,7.25
2019-05-05T22:15:25.573Z,5.87
2019-05-05T22:17:54.322Z,6.37
2019-05-05T22:20:28.968Z,5.92
2019-05-05T22:22:56.530Z,6.15
2019-05-05T22:25:24.511Z,5.65
2019-05-05T22:27:54.430Z,6.00
2019-05-05T22:30:23.698Z,5.80
2019-05-05T22:32:51.677Z,6.15
2019-05-05T22:35:19.715Z,6.37
2019-05-05T22:37:47.661Z,5.60
2019-05-05T22:40:16.044Z,5.58
2019-05-05T22:42:44.037Z,5.95
2019-05-05T22:45:14.106Z,6.15
2019-05-05T22:47:41.659Z,5.65
2019-05-05T22:50:13.875Z,6.00
2019-05-05T22:52:41.928Z,6.05
2019-05-05T22:55:09.820Z,5.87
2019-05-05T22:57:37.772Z,5.58
2019-05-05T23:00:06.750Z,6.22
2019-05-05T23:02:37.227Z,5.65
2019-05-05T23:05:26.906Z,5.58
2019-05-05T23:07:54.907Z,5.85
2019-05-05T23:10:23.499Z,6.53
2019-05-05T23:12:51.666Z,5.37
2019-05-05T23:15:19.624Z,5.90
2019-05-05T23:17:54.346Z,5.35
2019-05-05T23:20:34.013Z,5.53
2019-05-05T23:23:09.527Z,5.97
2019-05-05T23:25:40.792Z,6.03
2019-05-05T23:28:08.650Z,5.80
2019-05-05T23:30:41.171Z,6.08
2019-05-05T23:33:06.309Z,5.72
2019-05-05T23:35:34.471Z,6.22
2019-05-05T23:38:03.528Z,6.15
2019-05-05T23:40:33.848Z,6.20
2019-05-05T23:43:01.367Z,6.20
2019-05-05T23:45:29.267Z,6.50
2019-05-05T23:47:57.120Z,5.92
2019-05-05T23:50:25.002Z,5.90
2019-05-05T23:52:54.571Z,6.30
2019-05-05T23:55:23.969Z,5.83
2019-05-05T23:57:54.300Z,6.08
